Time;durP1;ratioP1;P1;durP2;ratioP2;P2;SDS_P1;SDS_P2;PMS_P1;PMS_P2;Temp;Humidity;BMP_temperature;BMP_pressure;BME280_temperature;BME280_humidity;BME280_pressure;Samples;Min_cycle;Max_cycle;Signal;HPM_P1;HPM_P2
2022/05/30 00:01:42;;;;;;;1.30;0.90;;;25.00;56.10;;;;;;5093276;28;20436;-81
2022/05/30 00:04:08;;;;;;;1.87;1.10;;;25.00;56.10;;;;;;5092960;28;20451;-81
2022/05/30 00:06:35;;;;;;;1.80;1.00;;;25.00;56.10;;;;;;5093061;28;20459;-82
2022/05/30 00:09:03;;;;;;;1.30;0.80;;;25.00;56.20;;;;;;5092738;28;20985;-81
2022/05/30 00:11:31;;;;;;;1.83;0.80;;;24.90;56.10;;;;;;5093238;28;20440;-82
2022/05/30 00:13:58;;;;;;;1.10;0.80;;;25.00;56.10;;;;;;5093018;28;20440;-82
2022/05/30 00:16:25;;;;;;;1.70;1.17;;;25.00;56.10;;;;;;5093186;28;20480;-87
2022/05/30 00:18:52;;;;;;;1.00;0.80;;;25.00;56.10;;;;;;5093106;28;20451;-81
2022/05/30 00:21:21;;;;;;;1.50;1.07;;;25.00;56.10;;;;;;5092993;28;20451;-82
2022/05/30 00:23:48;;;;;;;1.20;0.80;;;24.90;56.00;;;;;;5093648;28;20440;-83
2022/05/30 00:26:16;;;;;;;1.20;0.80;;;24.90;56.10;;;;;;5097017;28;20467;-81
2022/05/30 00:28:44;;;;;;;1.20;0.80;;;24.90;56.10;;;;;;5097197;28;20439;-81
2022/05/30 00:31:13;;;;;;;1.20;0.90;;;24.90;56.00;;;;;;5096724;28;20538;-89
2022/05/30 00:33:41;;;;;;;1.57;0.80;;;24.90;56.00;;;;;;5096848;28;20436;-91
2022/05/30 00:36:08;;;;;;;1.20;0.90;;;25.00;56.10;;;;;;5096705;28;20495;-80
2022/05/30 00:38:35;;;;;;;1.13;0.80;;;24.90;56.00;;;;;;5096716;28;20462;-82
2022/05/30 00:41:02;;;;;;;1.23;0.90;;;24.90;56.00;;;;;;5096527;28;20436;-92
2022/05/30 00:43:32;;;;;;;1.00;0.70;;;24.90;56.00;;;;;;5096847;28;20432;-81
2022/05/30 00:46:02;;;;;;;1.77;0.80;;;24.90;56.00;;;;;;5096837;28;20443;-87
2022/05/30 00:48:34;;;;;;;0.90;0.70;;;24.90;56.00;;;;;;5096809;28;20440;-81
2022/05/30 00:51:03;;;;;;;1.30;0.80;;;24.90;56.00;;;;;;5096817;28;20447;-81
2022/05/30 00:53:32;;;;;;;1.10;0.80;;;24.90;56.00;;;;;;5096645;28;20442;-85
2022/05/30 00:55:59;;;;;;;1.20;0.80;;;24.90;56.00;;;;;;5096163;28;20471;-81
2022/05/30 00:58:30;;;;;;;1.00;0.80;;;25.00;56.10;;;;;;5096542;28;20451;-91
2022/05/30 01:00:57;;;;;;;1.90;1.00;;;24.90;56.00;;;;;;5096380;28;20435;-90
2022/05/30 01:06:33;;;;;;;1.00;0.70;;;24.80;56.00;;;;;;5057490;28;20449;-85
2022/05/30 01:09:02;;;;;;;1.30;0.90;;;24.90;56.00;;;;;;5096544;28;20428;-84
2022/05/30 01:11:47;;;;;;;1.07;0.87;;;24.90;56.10;;;;;;5096332;28;20855;-82
2022/05/30 01:14:14;;;;;;;1.33;1.00;;;24.90;56.00;;;;;;5096356;28;20790;-85
2022/05/30 01:16:41;;;;;;;1.30;0.80;;;24.80;56.00;;;;;;5095940;28;20486;-90
2022/05/30 01:19:20;;;;;;;1.83;0.77;;;24.80;56.00;;;;;;5096062;28;20930;-80
2022/05/30 01:22:02;;;;;;;1.00;0.80;;;24.90;56.00;;;;;;5096010;28;20926;-89
2022/05/30 01:24:43;;;;;;;1.17;0.80;;;24.80;56.00;;;;;;5095728;28;20494;-90
2022/05/30 01:27:23;;;;;;;1.00;0.70;;;24.80;56.00;;;;;;5096021;28;20471;-89
2022/05/30 01:29:55;;;;;;;1.20;0.90;;;24.80;56.00;;;;;;5095815;28;20957;-89
2022/05/30 01:32:24;;;;;;;1.20;0.70;;;24.80;56.00;;;;;;5095934;28;20443;-80
2022/05/30 01:34:51;;;;;;;1.00;0.60;;;24.80;56.00;;;;;;5094960;28;20960;-81
2022/05/30 01:37:18;;;;;;;1.10;0.83;;;24.80;56.00;;;;;;5095689;28;20487;-89
2022/05/30 01:39:45;;;;;;;1.00;0.70;;;24.80;56.00;;;;;;5095588;28;20445;-84
2022/05/30 01:42:13;;;;;;;1.80;1.10;;;24.80;55.90;;;;;;5095830;28;21017;-84
2022/05/30 01:44:40;;;;;;;1.30;0.97;;;25.00;56.10;;;;;;5095524;28;20439;-89
2022/05/30 01:47:08;;;;;;;1.40;0.77;;;24.80;55.90;;;;;;5095656;28;20863;-90
2022/05/30 01:49:35;;;;;;;1.33;0.90;;;24.80;55.90;;;;;;5095759;28;20436;-81
2022/05/30 01:52:02;;;;;;;2.10;1.00;;;24.80;55.90;;;;;;5095477;28;20443;-81
2022/05/30 01:54:30;;;;;;;2.13;0.90;;;24.80;55.90;;;;;;5095440;28;20444;-80
2022/05/30 01:56:57;;;;;;;1.00;0.90;;;24.90;56.00;;;;;;5095204;28;20491;-80
2022/05/30 01:59:23;;;;;;;1.30;0.80;;;24.80;55.90;;;;;;5095503;28;20447;-81
2022/05/30 02:01:50;;;;;;;1.33;1.03;;;24.80;55.90;;;;;;5095096;28;20440;-87
2022/05/30 02:04:19;;;;;;;1.20;0.83;;;24.80;55.90;;;;;;5095790;28;20443;-87
2022/05/30 02:06:46;;;;;;;1.90;1.10;;;24.80;55.90;;;;;;5095277;28;20468;-81
2022/05/30 02:09:13;;;;;;;1.37;0.77;;;24.80;56.00;;;;;;5095058;28;20429;-81
2022/05/30 02:11:39;;;;;;;1.37;0.80;;;24.80;55.90;;;;;;5094897;28;20432;-80
2022/05/30 02:14:06;;;;;;;1.30;1.03;;;24.80;55.90;;;;;;5095133;28;20436;-89
2022/05/30 02:19:20;;;;;;;1.00;0.70;;;24.80;55.90;;;;;;5095010;28;20527;-81
2022/05/30 02:21:47;;;;;;;1.20;0.70;;;24.80;56.00;;;;;;5094954;28;20487;-81
2022/05/30 02:24:15;;;;;;;1.20;0.90;;;24.80;56.00;;;;;;5094520;28;20436;-80
2022/05/30 02:26:42;;;;;;;1.37;0.80;;;24.80;55.90;;;;;;5094881;28;20481;-91
2022/05/30 02:29:10;;;;;;;1.00;0.70;;;24.80;56.00;;;;;;5095229;28;20919;-90
2022/05/30 02:31:37;;;;;;;1.63;0.90;;;24.80;55.90;;;;;;5094825;28;20444;-81
2022/05/30 02:36:53;;;;;;;1.10;0.77;;;24.80;55.90;;;;;;5068375;28;20480;-86
2022/05/30 02:39:23;;;;;;;1.20;0.87;;;24.80;55.90;;;;;;5094011;28;20440;-88
2022/05/30 02:41:50;;;;;;;1.33;0.73;;;24.80;55.90;;;;;;5094384;28;20440;-91
2022/05/30 02:44:19;;;;;;;2.73;1.00;;;24.80;55.90;;;;;;5094477;28;20802;-85
2022/05/30 02:46:46;;;;;;;1.37;0.90;;;24.80;55.90;;;;;;5093699;28;20444;-81
2022/05/30 02:49:13;;;;;;;1.20;0.70;;;24.80;55.90;;;;;;5094625;28;20458;-91
2022/05/30 02:51:40;;;;;;;1.20;0.83;;;24.80;55.90;;;;;;5094528;28;20439;-90
2022/05/30 02:54:09;;;;;;;1.10;0.90;;;24.80;55.90;;;;;;5094150;28;20535;-80
2022/05/30 02:56:36;;;;;;;1.60;0.80;;;24.80;55.90;;;;;;5094354;28;20488;-89
2022/05/30 02:59:04;;;;;;;1.33;0.97;;;24.80;55.90;;;;;;5094234;28;20439;-81
2022/05/30 03:01:31;;;;;;;1.60;1.00;;;24.80;55.90;;;;;;5093766;28;20941;-92
2022/05/30 03:03:59;;;;;;;1.20;0.80;;;24.80;55.90;;;;;;5094316;28;20439;-86
2022/05/30 03:06:26;;;;;;;1.00;0.70;;;24.80;55.90;;;;;;5093939;28;20466;-82
2022/05/30 03:08:53;;;;;;;1.63;0.93;;;24.80;55.90;;;;;;5094225;28;20443;-91
2022/05/30 03:11:21;;;;;;;1.33;0.90;;;24.80;55.80;;;;;;5094045;28;20432;-92
2022/05/30 03:13:48;;;;;;;1.20;0.80;;;24.80;55.90;;;;;;5094088;28;20439;-82
2022/05/30 03:16:15;;;;;;;1.20;0.80;;;24.80;55.90;;;;;;5093798;28;20953;-91
2022/05/30 03:18:42;;;;;;;4.30;0.90;;;24.70;55.80;;;;;;5094087;28;20436;-92
2022/05/30 03:21:09;;;;;;;2.03;0.80;;;24.80;55.80;;;;;;5094309;28;20446;-91
2022/05/30 03:23:36;;;;;;;1.10;0.90;;;24.80;55.90;;;;;;5093893;28;20451;-82
2022/05/30 03:26:03;;;;;;;2.03;0.80;;;24.80;55.90;;;;;;5093338;28;20474;-85
2022/05/30 03:28:32;;;;;;;1.50;0.80;;;24.80;55.90;;;;;;5093781;28;20471;-90
2022/05/30 03:30:59;;;;;;;1.60;0.80;;;24.80;55.90;;;;;;5093954;28;20489;-91
2022/05/30 03:33:26;;;;;;;1.20;0.90;;;24.80;55.80;;;;;;5093609;28;20797;-82
2022/05/30 03:35:54;;;;;;;2.43;1.10;;;24.80;55.80;;;;;;5093778;28;20978;-82
2022/05/30 03:38:20;;;;;;;1.50;1.00;;;24.70;55.80;;;;;;5093610;28;20467;-91
2022/05/30 03:40:47;;;;;;;1.47;1.03;;;24.70;55.90;;;;;;5093697;28;20486;-90
2022/05/30 03:43:14;;;;;;;1.30;0.80;;;24.70;55.80;;;;;;5093945;28;20931;-92
2022/05/30 03:45:44;;;;;;;1.13;0.73;;;24.70;55.80;;;;;;5093470;28;20443;-92
2022/05/30 03:48:12;;;;;;;1.30;0.80;;;24.70;55.90;;;;;;5093743;28;20440;-91
2022/05/30 03:50:40;;;;;;;1.70;0.90;;;24.70;55.90;;;;;;5105529;28;20946;-81
2022/05/30 03:53:07;;;;;;;1.63;0.90;;;24.70;55.80;;;;;;5105279;28;20448;-81
2022/05/30 03:55:37;;;;;;;1.10;0.70;;;24.70;55.90;;;;;;5104526;28;20443;-82
2022/05/30 03:58:06;;;;;;;1.20;0.87;;;24.70;55.80;;;;;;5094868;28;20505;-81
2022/05/30 04:00:33;;;;;;;1.00;0.73;;;24.80;55.90;;;;;;5098180;28;20440;-91
2022/05/30 04:03:03;;;;;;;1.50;0.80;;;24.80;55.80;;;;;;5097913;28;20435;-93
2022/05/30 04:05:30;;;;;;;1.00;0.80;;;24.80;55.80;;;;;;5097568;28;20460;-81
2022/05/30 04:07:57;;;;;;;1.70;1.30;;;24.80;55.80;;;;;;5097552;28;20440;-91
2022/05/30 04:10:25;;;;;;;1.20;1.10;;;24.70;55.80;;;;;;5097518;28;20522;-82
2022/05/30 04:13:00;;;;;;;1.00;0.70;;;24.70;55.80;;;;;;5097284;28;20955;-81
2022/05/30 04:15:27;;;;;;;1.63;0.97;;;24.80;55.90;;;;;;5097344;28;20442;-82
2022/05/30 04:17:54;;;;;;;1.40;0.80;;;24.70;55.80;;;;;;5097192;28;20513;-92
2022/05/30 04:20:22;;;;;;;1.30;0.80;;;24.80;55.80;;;;;;5097210;28;20446;-92
2022/05/30 04:22:49;;;;;;;1.60;0.80;;;24.80;55.90;;;;;;5097214;28;20442;-82
2022/05/30 04:25:16;;;;;;;1.10;0.83;;;24.70;55.80;;;;;;5097057;28;20476;-92
2022/05/30 04:27:42;;;;;;;1.37;0.97;;;24.70;55.80;;;;;;5097397;28;20852;-81
2022/05/30 04:30:10;;;;;;;1.40;0.80;;;24.70;55.80;;;;;;5096983;28;20818;-91
2022/05/30 04:32:37;;;;;;;1.40;0.93;;;24.80;55.90;;;;;;5097722;28;20957;-86
2022/05/30 04:35:05;;;;;;;2.30;1.10;;;24.70;55.90;;;;;;5097210;28;20998;-82
2022/05/30 04:37:34;;;;;;;3.40;1.00;;;24.70;55.70;;;;;;5097413;28;20514;-90
2022/05/30 04:40:01;;;;;;;2.87;0.93;;;24.70;56.00;;;;;;5096817;28;20436;-83
2022/05/30 04:42:28;;;;;;;2.00;0.93;;;24.70;56.10;;;;;;5096847;28;20937;-82
2022/05/30 04:44:54;;;;;;;1.57;0.90;;;24.70;56.00;;;;;;5097046;28;20478;-82
2022/05/30 04:47:21;;;;;;;1.87;1.13;;;24.70;56.00;;;;;;5096871;28;20444;-87
2022/05/30 04:49:49;;;;;;;1.93;0.80;;;24.70;56.00;;;;;;5097035;28;20436;-82
2022/05/30 04:52:16;;;;;;;1.10;0.80;;;24.70;56.00;;;;;;5096561;28;20454;-90
2022/05/30 04:54:44;;;;;;;1.20;1.00;;;24.70;56.10;;;;;;5096579;28;20439;-89
2022/05/30 04:57:11;;;;;;;1.00;0.70;;;24.70;56.20;;;;;;5096305;28;20498;-88
2022/05/30 04:59:40;;;;;;;1.47;0.90;;;24.70;56.20;;;;;;5096121;28;20451;-88
2022/05/30 05:02:08;;;;;;;1.60;1.00;;;24.70;56.40;;;;;;5096523;28;20463;-86
2022/05/30 05:04:36;;;;;;;2.03;0.80;;;24.70;56.50;;;;;;5096907;28;20444;-90
2022/05/30 05:07:04;;;;;;;2.50;0.93;;;24.70;56.60;;;;;;5096871;28;20447;-85
2022/05/30 05:09:40;;;;;;;2.27;0.87;;;24.70;56.60;;;;;;5095381;28;20498;-87
2022/05/30 05:12:09;;;;;;;5.27;2.73;;;24.70;56.60;;;;;;5075634;28;20453;-83
2022/05/30 05:14:36;;;;;;;2.20;2.00;;;24.70;56.70;;;;;;5084988;28;20436;-82
2022/05/30 05:17:03;;;;;;;3.07;2.43;;;24.70;56.80;;;;;;5096330;28;20480;-81
2022/05/30 05:19:31;;;;;;;5.40;2.63;;;24.70;56.80;;;;;;5096088;28;20443;-82
2022/05/30 05:21:57;;;;;;;2.00;1.80;;;24.70;56.90;;;;;;5095399;28;20447;-81
2022/05/30 05:24:25;;;;;;;2.37;2.00;;;24.70;56.90;;;;;;5094809;28;20468;-81
2022/05/30 05:26:52;;;;;;;2.60;1.90;;;24.70;57.00;;;;;;5095663;28;20454;-80
2022/05/30 05:29:20;;;;;;;2.47;2.27;;;24.70;57.00;;;;;;5095913;28;20436;-86
2022/05/30 05:31:48;;;;;;;2.70;1.90;;;24.70;57.10;;;;;;5095696;28;20783;-82
2022/05/30 05:34:16;;;;;;;2.00;1.73;;;24.70;56.90;;;;;;5095678;28;20436;-88
2022/05/30 05:36:46;;;;;;;2.47;2.20;;;24.70;56.80;;;;;;5095445;28;20432;-87
2022/05/30 05:39:14;;;;;;;1.87;1.67;;;24.70;56.70;;;;;;5095963;28;20783;-89
2022/05/30 05:41:42;;;;;;;2.10;1.50;;;24.70;56.60;;;;;;5096419;28;20436;-87
2022/05/30 05:44:10;;;;;;;2.60;1.63;;;24.80;56.40;;;;;;5095513;28;20795;-92
2022/05/30 05:46:38;;;;;;;2.23;1.97;;;24.80;56.60;;;;;;5095729;28;20463;-88
2022/05/30 05:49:06;;;;;;;2.10;1.83;;;24.80;56.60;;;;;;5095879;28;20440;-90
2022/05/30 05:51:33;;;;;;;1.90;1.60;;;24.80;56.70;;;;;;5095460;28;20475;-88
2022/05/30 05:54:00;;;;;;;2.40;1.87;;;24.80;56.80;;;;;;5095027;28;20432;-84
2022/05/30 05:56:29;;;;;;;3.10;1.60;;;24.70;56.90;;;;;;5095077;28;20442;-88
2022/05/30 05:58:56;;;;;;;1.83;1.60;;;24.70;56.80;;;;;;5094977;28;20572;-84
2022/05/30 06:01:25;;;;;;;4.70;2.20;;;24.80;56.90;;;;;;5094602;28;20466;-86
2022/05/30 06:03:57;;;;;;;2.63;2.33;;;24.80;57.20;;;;;;5094859;28;20436;-84
2022/05/30 06:06:26;;;;;;;3.40;1.97;;;24.80;57.30;;;;;;5074701;28;20480;-83
2022/05/30 06:08:54;;;;;;;2.13;1.93;;;24.80;56.90;;;;;;5094378;28;20440;-84
2022/05/30 06:11:21;;;;;;;5.00;2.53;;;24.80;56.50;;;;;;5094617;28;20527;-84
2022/05/30 06:13:49;;;;;;;2.90;2.07;;;24.80;55.80;;;;;;5094404;28;20450;-85
2022/05/30 06:16:19;;;;;;;5.20;2.97;;;24.70;55.20;;;;;;5091865;28;20440;-86
2022/05/30 06:18:46;;;;;;;6.80;3.30;;;24.50;54.10;;;;;;5094086;28;20889;-86
2022/05/30 06:21:15;;;;;;;10.73;2.73;;;24.30;54.10;;;;;;5094618;28;20448;-86
2022/05/30 06:23:44;;;;;;;8.53;2.20;;;24.30;54.50;;;;;;5094832;28;20523;-85
2022/05/30 06:26:12;;;;;;;6.97;3.10;;;24.30;54.70;;;;;;5094331;28;20974;-83
2022/05/30 06:28:41;;;;;;;8.27;3.60;;;24.30;54.50;;;;;;5083595;28;20448;-86
2022/05/30 06:31:09;;;;;;;6.20;2.60;;;24.20;54.50;;;;;;5083648;28;20440;-85
2022/05/30 06:33:36;;;;;;;5.53;2.33;;;24.40;55.00;;;;;;5094725;28;20432;-85
2022/05/30 06:36:05;;;;;;;3.83;2.40;;;24.20;55.10;;;;;;5094219;28;20471;-83
2022/05/30 06:38:33;;;;;;;7.70;2.20;;;24.30;55.50;;;;;;5093979;28;20854;-80
2022/05/30 06:41:09;;;;;;;2.80;1.73;;;24.40;55.80;;;;;;5094328;28;20468;-82
2022/05/30 06:43:36;;;;;;;3.47;2.23;;;24.40;55.80;;;;;;5094224;28;20432;-81
2022/05/30 06:46:03;;;;;;;2.17;1.90;;;24.40;56.00;;;;;;5094510;28;20462;-82
2022/05/30 06:48:30;;;;;;;6.17;2.30;;;24.50;56.20;;;;;;5094059;28;20440;-84
2022/05/30 06:50:57;;;;;;;6.30;2.43;;;24.50;56.30;;;;;;5093954;28;20444;-82
2022/05/30 06:53:24;;;;;;;1.93;1.73;;;24.60;56.30;;;;;;5094040;28;20437;-84
2022/05/30 06:55:52;;;;;;;2.63;2.00;;;24.60;56.20;;;;;;5094174;28;20448;-82
2022/05/30 06:58:19;;;;;;;6.30;1.80;;;24.60;55.80;;;;;;5093643;28;20480;-86
2022/05/30 07:00:47;;;;;;;2.60;1.60;;;24.60;55.80;;;;;;5093944;28;20435;-81
2022/05/30 07:03:14;;;;;;;6.37;1.90;;;24.70;56.20;;;;;;5094154;28;20444;-82
2022/05/30 07:05:43;;;;;;;3.00;1.50;;;24.70;56.20;;;;;;5093695;28;20452;-81
2022/05/30 07:08:10;;;;;;;6.67;1.57;;;24.80;56.20;;;;;;5093869;28;20505;-82
2022/05/30 07:10:38;;;;;;;3.43;1.60;;;24.70;56.00;;;;;;5093871;28;20432;-84
2022/05/30 07:13:07;;;;;;;5.27;1.70;;;24.80;55.90;;;;;;5093763;28;20930;-87
2022/05/30 07:15:36;;;;;;;2.47;1.33;;;24.80;55.90;;;;;;5093875;28;20436;-83
2022/05/30 07:18:08;;;;;;;3.10;1.60;;;24.70;55.40;;;;;;5093680;28;20487;-83
2022/05/30 07:20:35;;;;;;;2.43;1.77;;;24.70;55.10;;;;;;5093565;28;20439;-83
2022/05/30 07:23:03;;;;;;;2.37;1.40;;;24.80;55.20;;;;;;5093647;28;20451;-87
2022/05/30 07:25:30;;;;;;;3.20;1.60;;;24.80;55.10;;;;;;5093692;28;20503;-85
2022/05/30 07:27:56;;;;;;;3.20;1.53;;;24.80;55.20;;;;;;5093428;28;20448;-88
2022/05/30 07:30:25;;;;;;;1.70;1.10;;;24.80;55.10;;;;;;5093732;28;20444;-89
2022/05/30 07:32:51;;;;;;;2.40;1.50;;;24.80;54.80;;;;;;5093311;28;20443;-87
2022/05/30 07:35:19;;;;;;;2.70;1.43;;;24.80;54.90;;;;;;5093568;28;20884;-87
2022/05/30 07:37:46;;;;;;;4.90;1.40;;;24.80;54.80;;;;;;5093387;28;20487;-86
2022/05/30 07:40:14;;;;;;;2.07;1.40;;;24.80;54.80;;;;;;5093475;28;21036;-84
2022/05/30 07:42:42;;;;;;;1.70;1.30;;;24.90;54.90;;;;;;5093329;28;20447;-85
2022/05/30 07:45:10;;;;;;;3.80;1.53;;;24.90;54.80;;;;;;5093740;28;20440;-85
2022/05/30 07:47:39;;;;;;;2.13;1.40;;;24.90;54.60;;;;;;5093312;28;20440;-86
2022/05/30 07:50:08;;;;;;;1.97;1.60;;;24.90;55.40;;;;;;5093592;28;20440;-84
2022/05/30 07:52:36;;;;;;;2.40;1.30;;;24.90;54.90;;;;;;5093553;28;20525;-84
2022/05/30 07:55:03;;;;;;;2.37;1.37;;;25.00;55.00;;;;;;5093425;28;20435;-87
2022/05/30 08:00:15;;;;;;;5.63;1.87;;;25.00;55.20;;;;;;5093407;28;20416;-82
2022/05/30 08:02:44;;;;;;;1.73;1.43;;;25.00;55.30;;;;;;5093444;28;20439;-86
2022/05/30 08:05:13;;;;;;;7.57;1.70;;;25.00;55.10;;;;;;5093077;28;20456;-88
2022/05/30 08:07:42;;;;;;;2.10;1.20;;;25.00;55.30;;;;;;5093680;28;20451;-86
2022/05/30 08:10:10;;;;;;;3.80;1.53;;;25.00;55.50;;;;;;5094036;28;20440;-87
2022/05/30 08:12:36;;;;;;;2.50;1.43;;;25.00;55.30;;;;;;5093544;28;20945;-86
2022/05/30 08:15:04;;;;;;;2.63;1.40;;;25.00;55.30;;;;;;5093275;28;20815;-85
2022/05/30 08:17:31;;;;;;;3.00;1.30;;;25.00;55.50;;;;;;5093061;28;20437;-84
2022/05/30 08:20:01;;;;;;;3.50;1.53;;;25.00;55.60;;;;;;5092981;28;20538;-84
2022/05/30 08:22:28;;;;;;;2.80;1.47;;;25.00;55.40;;;;;;5092859;28;20888;-87
2022/05/30 08:24:55;;;;;;;1.53;1.20;;;25.00;55.10;;;;;;5092911;28;20482;-82
2022/05/30 08:27:23;;;;;;;2.90;1.20;;;25.00;55.10;;;;;;5093112;28;20436;-83
2022/05/30 08:29:50;;;;;;;4.73;1.67;;;25.00;55.20;;;;;;5092972;28;20435;-83
2022/05/30 08:32:17;;;;;;;2.87;1.30;;;25.00;55.30;;;;;;5093319;28;20434;-88
2022/05/30 08:34:44;;;;;;;2.77;1.33;;;25.00;55.00;;;;;;5093200;28;20459;-90
2022/05/30 08:37:12;;;;;;;2.80;1.30;;;25.00;55.00;;;;;;5093083;28;20436;-86
2022/05/30 08:42:28;;;;;;;5.73;1.50;;;25.00;54.70;;;;;;5092852;28;20436;-89
2022/05/30 08:44:55;;;;;;;1.83;1.50;;;25.00;54.80;;;;;;5093817;28;20440;-82
2022/05/30 08:47:49;;;;;;;2.00;1.23;;;25.00;54.90;;;;;;5096648;28;20497;-83
2022/05/30 08:50:24;;;;;;;3.10;1.30;;;25.10;54.90;;;;;;5096520;28;20431;-86
2022/05/30 08:53:15;;;;;;;1.40;1.10;;;25.00;55.20;;;;;;5096992;28;20431;-85
2022/05/30 08:55:48;;;;;;;2.20;1.50;;;25.10;55.10;;;;;;5096537;28;20435;-85
2022/05/30 08:58:36;;;;;;;1.70;1.27;;;25.00;55.10;;;;;;5096290;28;21001;-86
2022/05/30 09:01:08;;;;;;;5.30;1.67;;;25.10;54.90;;;;;;5096407;28;20874;-85
2022/05/30 09:03:39;;;;;;;1.87;1.30;;;25.10;55.40;;;;;;5096371;28;20516;-85
2022/05/30 09:06:11;;;;;;;2.70;1.33;;;25.10;55.50;;;;;;5096044;28;20455;-85
2022/05/30 09:08:44;;;;;;;3.63;1.23;;;25.10;55.60;;;;;;5096184;28;20444;-83
2022/05/30 09:11:21;;;;;;;1.63;1.20;;;25.00;55.30;;;;;;5096061;28;20436;-83
2022/05/30 09:13:52;;;;;;;3.40;1.50;;;25.10;55.30;;;;;;5095703;28;20440;-86
2022/05/30 09:16:30;;;;;;;2.20;1.43;;;25.10;55.20;;;;;;5095889;28;20953;-86
2022/05/30 09:18:59;;;;;;;1.63;1.10;;;25.10;55.00;;;;;;5095941;28;20986;-86
2022/05/30 09:21:29;;;;;;;1.67;1.37;;;25.00;55.10;;;;;;5096134;28;20447;-85
2022/05/30 09:23:58;;;;;;;1.93;1.30;;;25.10;55.20;;;;;;5077854;28;20436;-87
2022/05/30 09:26:29;;;;;;;2.33;1.40;;;25.10;55.30;;;;;;5095830;28;20432;-86
2022/05/30 09:29:02;;;;;;;1.30;1.10;;;25.10;55.20;;;;;;5095652;28;20538;-82
2022/05/30 09:31:42;;;;;;;1.70;1.13;;;25.10;55.00;;;;;;5078545;28;20446;-84
2022/05/30 09:34:38;;;;;;;5.00;1.63;;;25.10;55.10;;;;;;5095672;28;20474;-82
2022/05/30 09:37:05;;;;;;;2.00;1.27;;;25.10;55.30;;;;;;5095341;28;20448;-83
2022/05/30 09:39:44;;;;;;;3.70;1.20;;;25.00;55.40;;;;;;5095201;28;20502;-82
2022/05/30 09:42:24;;;;;;;1.80;1.20;;;25.10;55.30;;;;;;5077395;28;20858;-86
2022/05/30 09:44:55;;;;;;;3.10;1.50;;;25.00;54.90;;;;;;5060893;28;20476;-85
2022/05/30 09:47:23;;;;;;;2.60;1.40;;;25.00;55.30;;;;;;5082229;28;20444;-79
2022/05/30 09:49:51;;;;;;;1.47;1.33;;;25.00;55.10;;;;;;5095300;28;20927;-80
2022/05/30 09:52:35;;;;;;;1.40;1.20;;;25.10;55.40;;;;;;5095985;28;20451;-81
2022/05/30 09:55:24;;;;;;;1.50;1.03;;;25.10;55.30;;;;;;5095447;28;21366;-84
2022/05/30 09:57:53;;;;;;;2.40;1.27;;;25.10;55.40;;;;;;5095226;28;20441;-86
2022/05/30 10:00:32;;;;;;;4.27;1.60;;;25.00;52.10;;;;;;5095514;28;20458;-84
2022/05/30 10:03:01;;;;;;;2.80;1.20;;;25.00;50.40;;;;;;5095070;28;20436;-83
2022/05/30 10:05:29;;;;;;;3.00;1.80;;;24.90;50.80;;;;;;5095181;28;20562;-85
2022/05/30 10:07:58;;;;;;;3.53;1.30;;;24.90;51.70;;;;;;5095073;28;20539;-85
2022/05/30 10:10:29;;;;;;;6.30;1.70;;;24.80;50.70;;;;;;5095210;28;20436;-85
2022/05/30 10:12:58;;;;;;;1.50;1.20;;;24.80;51.50;;;;;;5094984;28;20435;-85
2022/05/30 10:15:29;;;;;;;2.87;1.10;;;24.90;52.80;;;;;;5095190;28;20527;-84
2022/05/30 10:17:58;;;;;;;3.73;1.30;;;24.90;53.80;;;;;;5094679;28;20919;-85
2022/05/30 10:20:37;;;;;;;1.30;1.00;;;24.90;54.10;;;;;;5095173;28;20440;-86
2022/05/30 10:29:09;;;;;;;2.37;1.20;;;24.90;51.80;;;;;;5094765;28;20415;-85
2022/05/30 10:31:44;;;;;;;1.83;1.27;;;24.80;52.70;;;;;;5094934;28;20783;-85
2022/05/30 10:34:41;;;;;;;3.97;0.90;;;24.90;53.60;;;;;;5094664;28;20455;-84
2022/05/30 10:37:32;;;;;;;2.03;1.40;;;24.90;54.00;;;;;;5094167;28;20444;-84
2022/05/30 10:40:10;;;;;;;2.13;1.20;;;24.90;52.30;;;;;;5085713;28;20498;-81
2022/05/30 10:42:47;;;;;;;4.40;1.30;;;24.80;52.30;;;;;;5093326;28;20443;-84
2022/05/30 10:45:18;;;;;;;2.87;1.20;;;24.70;51.40;;;;;;5085188;28;20456;-83
2022/05/30 10:47:47;;;;;;;1.50;1.00;;;24.70;51.40;;;;;;5076161;28;20479;-85
2022/05/30 10:50:21;;;;;;;5.53;1.63;;;24.70;51.90;;;;;;5080143;28;20460;-84
2022/05/30 10:52:54;;;;;;;3.43;1.23;;;24.70;52.50;;;;;;5077076;28;20810;-84
2022/05/30 10:55:25;;;;;;;1.90;0.90;;;24.70;53.10;;;;;;5074110;28;20425;-83
2022/05/30 10:58:00;;;;;;;2.30;1.07;;;24.90;53.60;;;;;;5073794;28;20436;-84
2022/05/30 11:00:33;;;;;;;1.90;1.10;;;24.80;53.80;;;;;;5075377;28;20483;-90
2022/05/30 11:03:04;;;;;;;5.93;1.43;;;24.80;53.90;;;;;;5074030;28;20437;-88
2022/05/30 11:05:51;;;;;;;3.30;1.13;;;24.80;54.10;;;;;;5089501;28;20479;-88
2022/05/30 11:08:25;;;;;;;1.30;1.20;;;24.90;54.30;;;;;;5094329;28;20436;-85
2022/05/30 11:10:58;;;;;;;1.97;1.23;;;24.80;54.40;;;;;;5093774;28;20447;-84
2022/05/30 11:13:40;;;;;;;1.10;0.87;;;24.80;54.40;;;;;;5093876;28;20436;-84
2022/05/30 11:16:14;;;;;;;1.30;1.10;;;24.90;54.50;;;;;;5094187;28;20768;-85
2022/05/30 11:18:46;;;;;;;2.57;1.20;;;24.90;54.50;;;;;;5083286;28;20479;-89
2022/05/30 11:21:21;;;;;;;2.80;1.07;;;24.90;53.90;;;;;;5089240;28;20467;-83
2022/05/30 11:23:49;;;;;;;1.87;1.10;;;25.00;53.80;;;;;;5093552;28;20845;-84
2022/05/30 11:26:42;;;;;;;1.30;1.00;;;24.90;54.20;;;;;;5072996;28;20476;-85
2022/05/30 11:29:23;;;;;;;1.50;1.37;;;25.00;54.40;;;;;;5073020;28;20457;-81
2022/05/30 11:32:00;;;;;;;1.27;1.03;;;25.00;54.50;;;;;;5087560;28;20477;-80
2022/05/30 11:34:48;;;;;;;1.73;1.20;;;25.00;54.50;;;;;;5092029;28;20552;-80
2022/05/30 11:37:38;;;;;;;1.77;1.17;;;25.10;54.60;;;;;;5092165;28;20440;-88
2022/05/30 11:40:17;;;;;;;4.20;1.13;;;25.10;54.70;;;;;;5093315;28;20476;-87
2022/05/30 11:42:56;;;;;;;2.03;1.37;;;25.10;54.80;;;;;;5091818;28;20440;-85
2022/05/30 11:45:45;;;;;;;2.17;1.10;;;25.10;55.00;;;;;;5092068;28;20447;-84
2022/05/30 11:48:17;;;;;;;1.33;1.00;;;25.10;55.20;;;;;;5087187;28;20941;-83
2022/05/30 11:50:52;;;;;;;2.90;1.00;;;25.10;55.60;;;;;;5092184;28;20444;-88
2022/05/30 11:53:42;;;;;;;5.27;1.13;;;25.10;54.30;;;;;;5092974;28;20952;-87
2022/05/30 11:56:17;;;;;;;2.80;1.00;;;25.10;54.70;;;;;;5085414;28;20535;-87
2022/05/30 11:59:08;;;;;;;2.13;1.10;;;25.00;51.80;;;;;;5086726;28;20447;-85
2022/05/30 12:01:39;;;;;;;1.47;0.93;;;25.00;50.30;;;;;;5092481;28;20431;-88
2022/05/30 12:04:35;;;;;;;9.13;1.27;;;24.90;49.60;;;;;;5092576;28;20958;-84
2022/05/30 12:07:29;;;;;;;2.50;1.10;;;24.90;49.00;;;;;;5089866;28;20456;-87
2022/05/30 12:10:05;;;;;;;1.60;0.97;;;24.80;48.70;;;;;;5074064;28;20453;-82
2022/05/30 12:12:46;;;;;;;2.00;1.10;;;24.80;48.50;;;;;;5092349;28;20448;-81
2022/05/30 12:15:46;;;;;;;1.63;0.80;;;24.80;48.70;;;;;;5092561;28;20439;-82
2022/05/30 12:24:40;;;;;;;1.77;1.23;;;24.70;53.10;;;;;;5096518;28;20469;-82
2022/05/30 12:27:35;;;;;;;1.20;0.90;;;24.80;53.40;;;;;;5096205;28;20534;-82
2022/05/30 12:30:04;;;;;;;1.20;0.93;;;24.90;53.60;;;;;;5086875;28;20448;-82
2022/05/30 12:32:44;;;;;;;3.30;1.10;;;24.80;53.70;;;;;;5096378;28;20436;-82
2022/05/30 12:35:31;;;;;;;2.70;1.03;;;24.90;53.80;;;;;;5096321;28;20467;-87
2022/05/30 12:38:16;;;;;;;2.00;1.00;;;25.00;53.80;;;;;;5096315;28;20460;-87
2022/05/30 12:41:17;;;;;;;1.37;0.90;;;24.90;53.50;;;;;;5095523;28;20991;-86
2022/05/30 12:43:45;;;;;;;5.50;1.43;;;24.90;53.40;;;;;;5067738;28;20451;-85
2022/05/30 12:46:16;;;;;;;1.70;1.07;;;24.90;54.00;;;;;;5075742;28;20774;-82
2022/05/30 12:48:58;;;;;;;1.60;1.10;;;25.00;54.20;;;;;;5075686;28;20814;-83
2022/05/30 12:51:31;;;;;;;2.80;1.17;;;25.00;54.20;;;;;;5068031;28;20462;-82
2022/05/30 12:54:35;;;;;;;1.93;0.93;;;25.10;54.30;;;;;;5075607;28;20455;-85
2022/05/30 12:57:12;;;;;;;1.40;1.10;;;25.10;54.30;;;;;;5077490;28;20448;-85
2022/05/30 13:00:15;;;;;;;1.50;0.93;;;25.10;54.50;;;;;;5067150;28;20488;-84
2022/05/30 13:03:36;;;;;;;1.77;1.00;;;25.10;54.40;;;;;;5074655;28;20821;-86
2022/05/30 13:06:10;;;;;;;1.10;1.00;;;25.10;54.50;;;;;;5087145;28;20535;-84
2022/05/30 13:09:03;;;;;;;1.10;0.87;;;25.00;54.50;;;;;;5095575;28;20478;-84
2022/05/30 13:12:07;;;;;;;4.13;0.90;;;25.10;54.50;;;;;;5095811;28;20448;-86
2022/05/30 13:15:11;;;;;;;1.10;0.80;;;25.10;54.50;;;;;;5093595;28;20461;-86
2022/05/30 13:17:50;;;;;;;1.10;0.80;;;25.10;54.60;;;;;;5096136;28;20440;-86
2022/05/30 13:20:20;;;;;;;1.53;0.93;;;25.10;54.60;;;;;;5095726;28;20964;-82
2022/05/30 13:22:49;;;;;;;1.37;1.20;;;25.10;54.60;;;;;;5095029;28;20444;-78
2022/05/30 13:25:21;;;;;;;2.73;1.00;;;25.10;54.60;;;;;;5094846;28;20471;-82
2022/05/30 13:27:49;;;;;;;0.93;0.73;;;25.20;54.70;;;;;;5095239;28;20454;-85
2022/05/30 13:30:20;;;;;;;1.20;0.90;;;25.20;54.70;;;;;;5094350;28;20436;-84
2022/05/30 13:32:49;;;;;;;1.00;0.77;;;25.10;54.60;;;;;;5094875;28;20444;-82
2022/05/30 13:35:17;;;;;;;3.20;1.07;;;25.20;54.70;;;;;;5094993;28;20467;-84
2022/05/30 13:37:49;;;;;;;1.33;0.70;;;25.20;54.70;;;;;;5077433;28;20451;-84